sensor_id;sensor_type;location;lat;lon;timestamp;P1;durP1;ratioP1;P2;durP2;ratioP2
19585;SDS011;9939;49.246;9.106;2022-09-09T10:26:25;4.13;;;0.83;;
19585;SDS011;9939;49.246;9.106;2022-09-09T10:31:43;3.43;;;0.80;;
19585;SDS011;9939;49.246;9.106;2022-09-09T10:37:16;3.73;;;0.60;;
19585;SDS011;9939;49.246;9.106;2022-09-09T10:39:54;1.97;;;0.80;;
19585;SDS011;9939;49.246;9.106;2022-09-09T10:42:31;4.30;;;0.67;;
19585;SDS011;9939;49.246;9.106;2022-09-09T10:47:59;2.60;;;0.70;;
19585;SDS011;9939;49.246;9.106;2022-09-09T10:50:48;2.57;;;0.80;;
19585;SDS011;9939;49.246;9.106;2022-09-09T10:56:13;3.80;;;0.60;;
19585;SDS011;9939;49.246;9.106;2022-09-09T10:58:47;3.30;;;0.70;;
19585;SDS011;9939;49.246;9.106;2022-09-09T11:01:17;2.17;;;0.73;;
19585;SDS011;9939;49.246;9.106;2022-09-09T11:03:45;4.23;;;0.83;;
19585;SDS011;9939;49.246;9.106;2022-09-09T11:06:19;1.40;;;0.50;;
19585;SDS011;9939;49.246;9.106;2022-09-09T11:08:51;3.20;;;0.67;;
19585;SDS011;9939;49.246;9.106;2022-09-09T11:11:27;3.20;;;0.80;;
19585;SDS011;9939;49.246;9.106;2022-09-09T11:22:04;2.83;;;0.60;;
19585;SDS011;9939;49.246;9.106;2022-09-09T11:24:44;1.30;;;0.53;;
19585;SDS011;9939;49.246;9.106;2022-09-09T11:27:25;3.33;;;0.70;;
19585;SDS011;9939;49.246;9.106;2022-09-09T11:30:11;5.13;;;0.90;;
19585;SDS011;9939;49.246;9.106;2022-09-09T11:38:52;4.57;;;0.80;;
19585;SDS011;9939;49.246;9.106;2022-09-09T11:41:32;3.07;;;0.70;;
19585;SDS011;9939;49.246;9.106;2022-09-09T11:44:10;3.57;;;0.80;;
19585;SDS011;9939;49.246;9.106;2022-09-09T11:46:40;3.47;;;0.90;;
19585;SDS011;9939;49.246;9.106;2022-09-09T11:49:26;1.70;;;0.47;;
19585;SDS011;9939;49.246;9.106;2022-09-09T11:51:54;2.83;;;0.60;;
19585;SDS011;9939;49.246;9.106;2022-09-09T11:54:27;3.70;;;0.80;;
19585;SDS011;9939;49.246;9.106;2022-09-09T11:56:59;0.97;;;0.50;;
19585;SDS011;9939;49.246;9.106;2022-09-09T11:59:29;3.87;;;0.90;;
19585;SDS011;9939;49.246;9.106;2022-09-09T12:02:47;3.13;;;0.80;;
19585;SDS011;9939;49.246;9.106;2022-09-09T12:05:08;3.37;;;0.90;;
19585;SDS011;9939;49.246;9.106;2022-09-09T12:07:40;4.50;;;0.80;;
19585;SDS011;9939;49.246;9.106;2022-09-09T12:12:48;2.93;;;0.67;;
19585;SDS011;9939;49.246;9.106;2022-09-09T12:15:26;3.33;;;1.03;;
19585;SDS011;9939;49.246;9.106;2022-09-09T12:17:56;2.70;;;0.70;;
19585;SDS011;9939;49.246;9.106;2022-09-09T12:26:20;2.97;;;0.53;;
19585;SDS011;9939;49.246;9.106;2022-09-09T12:29:03;2.93;;;1.10;;
19585;SDS011;9939;49.246;9.106;2022-09-09T12:32:03;2.03;;;0.60;;
19585;SDS011;9939;49.246;9.106;2022-09-09T12:34:40;2.70;;;0.60;;
19585;SDS011;9939;49.246;9.106;2022-09-09T12:40:03;3.47;;;0.67;;
19585;SDS011;9939;49.246;9.106;2022-09-09T12:42:39;4.57;;;0.60;;
19585;SDS011;9939;49.246;9.106;2022-09-09T12:45:16;2.93;;;0.67;;
19585;SDS011;9939;49.246;9.106;2022-09-09T12:47:50;2.77;;;0.60;;
19585;SDS011;9939;49.246;9.106;2022-09-09T12:50:22;2.43;;;0.60;;
19585;SDS011;9939;49.246;9.106;2022-09-09T12:53:41;1.63;;;0.70;;
19585;SDS011;9939;49.246;9.106;2022-09-09T12:56:19;3.43;;;0.60;;
19585;SDS011;9939;49.246;9.106;2022-09-09T12:59:00;2.35;;;0.70;;
19585;SDS011;9939;49.246;9.106;2022-09-09T13:01:30;1.42;;;0.50;;
19585;SDS011;9939;49.246;9.106;2022-09-09T13:04:20;3.10;;;0.80;;
19585;SDS011;9939;49.246;9.106;2022-09-09T13:06:52;4.07;;;0.82;;
19585;SDS011;9939;49.246;9.106;2022-09-09T13:09:19;2.53;;;0.82;;
19585;SDS011;9939;49.246;9.106;2022-09-09T13:11:50;2.92;;;0.80;;
19585;SDS011;9939;49.246;9.106;2022-09-09T13:14:29;2.80;;;0.77;;
19585;SDS011;9939;49.246;9.106;2022-09-09T13:17:02;1.65;;;0.85;;
19585;SDS011;9939;49.246;9.106;2022-09-09T13:19:35;3.97;;;0.50;;
19585;SDS011;9939;49.246;9.106;2022-09-09T13:22:13;2.30;;;0.60;;
19585;SDS011;9939;49.246;9.106;2022-09-09T13:24:48;4.47;;;0.77;;
19585;SDS011;9939;49.246;9.106;2022-09-09T13:27:53;3.60;;;0.60;;
19585;SDS011;9939;49.246;9.106;2022-09-09T13:30:26;1.48;;;0.65;;
19585;SDS011;9939;49.246;9.106;2022-09-09T13:35:58;1.73;;;0.50;;
19585;SDS011;9939;49.246;9.106;2022-09-09T13:38:29;1.40;;;0.73;;
19585;SDS011;9939;49.246;9.106;2022-09-09T13:41:05;4.07;;;0.90;;
19585;SDS011;9939;49.246;9.106;2022-09-09T13:43:36;3.50;;;0.77;;
19585;SDS011;9939;49.246;9.106;2022-09-09T13:52:02;1.80;;;0.50;;
19585;SDS011;9939;49.246;9.106;2022-09-09T13:54:30;3.80;;;0.83;;
19585;SDS011;9939;49.246;9.106;2022-09-09T13:56:57;2.43;;;0.80;;
19585;SDS011;9939;49.246;9.106;2022-09-09T13:59:24;2.33;;;0.90;;
19585;SDS011;9939;49.246;9.106;2022-09-09T14:02:12;2.50;;;0.77;;
19585;SDS011;9939;49.246;9.106;2022-09-09T14:04:40;3.83;;;0.80;;
19585;SDS011;9939;49.246;9.106;2022-09-09T14:07:13;4.13;;;0.60;;
19585;SDS011;9939;49.246;9.106;2022-09-09T14:09:41;6.17;;;0.83;;
19585;SDS011;9939;49.246;9.106;2022-09-09T14:12:11;3.53;;;0.80;;
19585;SDS011;9939;49.246;9.106;2022-09-09T14:14:40;2.13;;;0.70;;
19585;SDS011;9939;49.246;9.106;2022-09-09T14:17:08;3.33;;;0.90;;
19585;SDS011;9939;49.246;9.106;2022-09-09T14:19:35;3.57;;;0.67;;
19585;SDS011;9939;49.246;9.106;2022-09-09T14:22:03;2.57;;;0.50;;
19585;SDS011;9939;49.246;9.106;2022-09-09T14:24:30;2.57;;;1.23;;
19585;SDS011;9939;49.246;9.106;2022-09-09T14:26:57;4.20;;;0.80;;
19585;SDS011;9939;49.246;9.106;2022-09-09T14:29:24;2.80;;;0.60;;
19585;SDS011;9939;49.246;9.106;2022-09-09T14:31:53;1.07;;;0.40;;
19585;SDS011;9939;49.246;9.106;2022-09-09T14:34:20;3.03;;;0.60;;
19585;SDS011;9939;49.246;9.106;2022-09-09T14:36:46;1.97;;;0.50;;
19585;SDS011;9939;49.246;9.106;2022-09-09T14:39:14;2.13;;;0.30;;
19585;SDS011;9939;49.246;9.106;2022-09-09T14:41:40;1.00;;;0.30;;
19585;SDS011;9939;49.246;9.106;2022-09-09T14:44:07;1.30;;;0.33;;
19585;SDS011;9939;49.246;9.106;2022-09-09T14:46:35;1.20;;;0.53;;
19585;SDS011;9939;49.246;9.106;2022-09-09T14:49:02;1.53;;;0.40;;
19585;SDS011;9939;49.246;9.106;2022-09-09T14:51:29;1.20;;;0.40;;
19585;SDS011;9939;49.246;9.106;2022-09-09T14:53:57;2.93;;;0.57;;
19585;SDS011;9939;49.246;9.106;2022-09-09T14:56:26;1.17;;;0.40;;
19585;SDS011;9939;49.246;9.106;2022-09-09T14:58:56;1.37;;;0.40;;
19585;SDS011;9939;49.246;9.106;2022-09-09T15:01:25;2.93;;;0.50;;
19585;SDS011;9939;49.246;9.106;2022-09-09T15:03:54;1.33;;;0.40;;
19585;SDS011;9939;49.246;9.106;2022-09-09T15:06:22;2.30;;;0.73;;
19585;SDS011;9939;49.246;9.106;2022-09-09T15:08:50;1.73;;;0.50;;
19585;SDS011;9939;49.246;9.106;2022-09-09T15:11:19;2.53;;;0.60;;
19585;SDS011;9939;49.246;9.106;2022-09-09T15:13:47;1.80;;;0.47;;
19585;SDS011;9939;49.246;9.106;2022-09-09T15:16:18;0.70;;;0.50;;
19585;SDS011;9939;49.246;9.106;2022-09-09T15:18:46;3.27;;;0.60;;
19585;SDS011;9939;49.246;9.106;2022-09-09T15:21:18;3.30;;;0.67;;
19585;SDS011;9939;49.246;9.106;2022-09-09T15:23:45;1.83;;;0.70;;
19585;SDS011;9939;49.246;9.106;2022-09-09T15:26:14;2.53;;;0.70;;
19585;SDS011;9939;49.246;9.106;2022-09-09T15:28:42;2.07;;;0.40;;
19585;SDS011;9939;49.246;9.106;2022-09-09T15:31:12;0.80;;;0.40;;
19585;SDS011;9939;49.246;9.106;2022-09-09T15:33:50;1.03;;;0.57;;
19585;SDS011;9939;49.246;9.106;2022-09-09T15:36:29;1.87;;;0.73;;
19585;SDS011;9939;49.246;9.106;2022-09-09T15:39:04;1.87;;;0.50;;
19585;SDS011;9939;49.246;9.106;2022-09-09T15:41:32;4.47;;;1.20;;
19585;SDS011;9939;49.246;9.106;2022-09-09T15:44:00;4.30;;;0.73;;
19585;SDS011;9939;49.246;9.106;2022-09-09T15:49:07;2.60;;;0.73;;
19585;SDS011;9939;49.246;9.106;2022-09-09T15:51:42;1.67;;;0.70;;
19585;SDS011;9939;49.246;9.106;2022-09-09T15:54:11;3.43;;;0.80;;
19585;SDS011;9939;49.246;9.106;2022-09-09T15:56:40;4.47;;;0.93;;
19585;SDS011;9939;49.246;9.106;2022-09-09T15:59:07;6.07;;;1.17;;
19585;SDS011;9939;49.246;9.106;2022-09-09T16:01:35;4.80;;;0.87;;
19585;SDS011;9939;49.246;9.106;2022-09-09T16:04:02;1.97;;;0.60;;
19585;SDS011;9939;49.246;9.106;2022-09-09T16:06:30;3.33;;;0.80;;
19585;SDS011;9939;49.246;9.106;2022-09-09T16:08:57;3.67;;;0.90;;
19585;SDS011;9939;49.246;9.106;2022-09-09T16:11:28;1.20;;;0.60;;
19585;SDS011;9939;49.246;9.106;2022-09-09T16:14:02;4.77;;;1.13;;
19585;SDS011;9939;49.246;9.106;2022-09-09T16:16:30;3.77;;;0.63;;
19585;SDS011;9939;49.246;9.106;2022-09-09T16:18:58;1.80;;;0.50;;
19585;SDS011;9939;49.246;9.106;2022-09-09T16:21:33;2.20;;;0.50;;
19585;SDS011;9939;49.246;9.106;2022-09-09T16:24:02;2.87;;;0.67;;
19585;SDS011;9939;49.246;9.106;2022-09-09T16:26:31;2.57;;;0.70;;
19585;SDS011;9939;49.246;9.106;2022-09-09T16:29:00;1.50;;;0.47;;
19585;SDS011;9939;49.246;9.106;2022-09-09T16:31:28;2.77;;;0.50;;
19585;SDS011;9939;49.246;9.106;2022-09-09T16:33:56;1.60;;;0.60;;
19585;SDS011;9939;49.246;9.106;2022-09-09T16:36:25;1.47;;;0.40;;
19585;SDS011;9939;49.246;9.106;2022-09-09T16:38:54;2.10;;;0.70;;
19585;SDS011;9939;49.246;9.106;2022-09-09T16:41:24;3.07;;;0.60;;
19585;SDS011;9939;49.246;9.106;2022-09-09T16:44:05;3.50;;;0.93;;
19585;SDS011;9939;49.246;9.106;2022-09-09T16:46:35;1.67;;;0.60;;
19585;SDS011;9939;49.246;9.106;2022-09-09T16:49:06;0.80;;;0.43;;
19585;SDS011;9939;49.246;9.106;2022-09-09T16:51:45;2.73;;;0.67;;
19585;SDS011;9939;49.246;9.106;2022-09-09T16:54:14;1.17;;;0.50;;
19585;SDS011;9939;49.246;9.106;2022-09-09T16:56:44;2.17;;;0.53;;
19585;SDS011;9939;49.246;9.106;2022-09-09T16:59:13;2.73;;;0.73;;
19585;SDS011;9939;49.246;9.106;2022-09-09T17:01:42;2.33;;;0.50;;
19585;SDS011;9939;49.246;9.106;2022-09-09T17:04:13;1.77;;;0.50;;
19585;SDS011;9939;49.246;9.106;2022-09-09T17:06:49;1.57;;;0.80;;
19585;SDS011;9939;49.246;9.106;2022-09-09T17:09:18;2.20;;;0.77;;
19585;SDS011;9939;49.246;9.106;2022-09-09T17:11:46;2.90;;;0.87;;
19585;SDS011;9939;49.246;9.106;2022-09-09T17:14:15;1.83;;;0.60;;
19585;SDS011;9939;49.246;9.106;2022-09-09T17:16:44;2.33;;;0.80;;
19585;SDS011;9939;49.246;9.106;2022-09-09T17:19:11;1.73;;;0.60;;
19585;SDS011;9939;49.246;9.106;2022-09-09T17:21:39;4.10;;;0.70;;
19585;SDS011;9939;49.246;9.106;2022-09-09T17:24:26;3.07;;;0.90;;
19585;SDS011;9939;49.246;9.106;2022-09-09T17:26:55;3.87;;;0.60;;
19585;SDS011;9939;49.246;9.106;2022-09-09T17:29:23;3.33;;;0.60;;
19585;SDS011;9939;49.246;9.106;2022-09-09T17:31:51;2.93;;;0.50;;
19585;SDS011;9939;49.246;9.106;2022-09-09T17:34:18;1.63;;;0.60;;
19585;SDS011;9939;49.246;9.106;2022-09-09T17:36:45;3.13;;;0.67;;
19585;SDS011;9939;49.246;9.106;2022-09-09T17:39:13;2.37;;;0.50;;
19585;SDS011;9939;49.246;9.106;2022-09-09T17:41:40;3.07;;;0.67;;
19585;SDS011;9939;49.246;9.106;2022-09-09T17:44:07;2.27;;;0.60;;
19585;SDS011;9939;49.246;9.106;2022-09-09T17:46:40;0.30;;;0.30;;
19585;SDS011;9939;49.246;9.106;2022-09-09T17:49:10;0.90;;;0.40;;
19585;SDS011;9939;49.246;9.106;2022-09-09T17:51:39;0.70;;;0.50;;
19585;SDS011;9939;49.246;9.106;2022-09-09T17:54:12;2.13;;;0.47;;
19585;SDS011;9939;49.246;9.106;2022-09-09T17:56:41;0.87;;;0.50;;
19585;SDS011;9939;49.246;9.106;2022-09-09T17:59:11;1.43;;;0.40;;
19585;SDS011;9939;49.246;9.106;2022-09-09T18:01:40;2.43;;;0.77;;
19585;SDS011;9939;49.246;9.106;2022-09-09T18:04:11;2.33;;;0.70;;
19585;SDS011;9939;49.246;9.106;2022-09-09T18:06:44;1.13;;;0.50;;
19585;SDS011;9939;49.246;9.106;2022-09-09T18:09:14;1.43;;;0.57;;
19585;SDS011;9939;49.246;9.106;2022-09-09T18:11:44;3.10;;;0.73;;
19585;SDS011;9939;49.246;9.106;2022-09-09T18:14:14;1.87;;;0.80;;
19585;SDS011;9939;49.246;9.106;2022-09-09T18:16:43;2.20;;;0.60;;
19585;SDS011;9939;49.246;9.106;2022-09-09T18:19:11;2.23;;;0.80;;
19585;SDS011;9939;49.246;9.106;2022-09-09T18:21:42;3.37;;;0.83;;
19585;SDS011;9939;49.246;9.106;2022-09-09T18:24:10;1.87;;;0.70;;
19585;SDS011;9939;49.246;9.106;2022-09-09T18:26:38;1.50;;;0.70;;
19585;SDS011;9939;49.246;9.106;2022-09-09T18:29:08;2.43;;;0.70;;
19585;SDS011;9939;49.246;9.106;2022-09-09T18:31:36;2.13;;;0.50;;
19585;SDS011;9939;49.246;9.106;2022-09-09T18:34:05;2.20;;;0.70;;
19585;SDS011;9939;49.246;9.106;2022-09-09T18:36:37;1.97;;;0.60;;
19585;SDS011;9939;49.246;9.106;2022-09-09T18:39:10;2.20;;;0.73;;
19585;SDS011;9939;49.246;9.106;2022-09-09T18:41:40;2.07;;;1.00;;
19585;SDS011;9939;49.246;9.106;2022-09-09T18:44:13;4.07;;;0.87;;
19585;SDS011;9939;49.246;9.106;2022-09-09T18:46:42;2.07;;;1.10;;
19585;SDS011;9939;49.246;9.106;2022-09-09T18:49:10;3.60;;;1.07;;
19585;SDS011;9939;49.246;9.106;2022-09-09T18:51:38;2.97;;;0.80;;
19585;SDS011;9939;49.246;9.106;2022-09-09T18:54:07;2.03;;;0.87;;
19585;SDS011;9939;49.246;9.106;2022-09-09T18:56:39;2.33;;;0.97;;
19585;SDS011;9939;49.246;9.106;2022-09-09T18:59:07;2.50;;;0.77;;
19585;SDS011;9939;49.246;9.106;2022-09-09T19:01:36;2.53;;;0.80;;
19585;SDS011;9939;49.246;9.106;2022-09-09T19:04:04;6.07;;;0.80;;
19585;SDS011;9939;49.246;9.106;2022-09-09T19:06:33;2.07;;;0.77;;
19585;SDS011;9939;49.246;9.106;2022-09-09T19:09:03;3.10;;;0.80;;
19585;SDS011;9939;49.246;9.106;2022-09-09T19:11:31;3.57;;;1.03;;
19585;SDS011;9939;49.246;9.106;2022-09-09T19:14:00;2.43;;;1.13;;
19585;SDS011;9939;49.246;9.106;2022-09-09T19:16:30;3.30;;;1.10;;
19585;SDS011;9939;49.246;9.106;2022-09-09T19:18:59;2.83;;;0.93;;
19585;SDS011;9939;49.246;9.106;2022-09-09T19:21:30;3.30;;;1.20;;
19585;SDS011;9939;49.246;9.106;2022-09-09T19:26:42;7.20;;;2.00;;
19585;SDS011;9939;49.246;9.106;2022-09-09T19:29:12;4.27;;;1.70;;
19585;SDS011;9939;49.246;9.106;2022-09-09T19:31:41;5.30;;;1.20;;
19585;SDS011;9939;49.246;9.106;2022-09-09T19:34:30;3.90;;;1.23;;
19585;SDS011;9939;49.246;9.106;2022-09-09T19:36:57;2.87;;;1.10;;
19585;SDS011;9939;49.246;9.106;2022-09-09T19:39:24;3.00;;;0.90;;
19585;SDS011;9939;49.246;9.106;2022-09-09T19:41:51;4.13;;;1.23;;
19585;SDS011;9939;49.246;9.106;2022-09-09T19:44:18;2.77;;;1.00;;
19585;SDS011;9939;49.246;9.106;2022-09-09T19:46:45;3.27;;;1.13;;
19585;SDS011;9939;49.246;9.106;2022-09-09T19:49:12;4.13;;;1.07;;
19585;SDS011;9939;49.246;9.106;2022-09-09T19:51:43;2.00;;;0.87;;
19585;SDS011;9939;49.246;9.106;2022-09-09T19:54:12;4.90;;;1.00;;
19585;SDS011;9939;49.246;9.106;2022-09-09T19:56:39;3.10;;;1.03;;
19585;SDS011;9939;49.246;9.106;2022-09-09T19:59:08;2.63;;;1.13;;
19585;SDS011;9939;49.246;9.106;2022-09-09T20:01:38;3.50;;;1.00;;
19585;SDS011;9939;49.246;9.106;2022-09-09T20:04:07;5.47;;;1.33;;
19585;SDS011;9939;49.246;9.106;2022-09-09T20:06:36;7.50;;;1.10;;
19585;SDS011;9939;49.246;9.106;2022-09-09T20:09:05;8.30;;;1.80;;
19585;SDS011;9939;49.246;9.106;2022-09-09T20:11:33;8.17;;;1.90;;
19585;SDS011;9939;49.246;9.106;2022-09-09T20:14:00;4.10;;;1.30;;
19585;SDS011;9939;49.246;9.106;2022-09-09T20:16:28;5.33;;;1.70;;
19585;SDS011;9939;49.246;9.106;2022-09-09T20:18:57;4.33;;;1.70;;
19585;SDS011;9939;49.246;9.106;2022-09-09T20:21:28;4.43;;;1.40;;
19585;SDS011;9939;49.246;9.106;2022-09-09T20:24:01;3.40;;;1.20;;
19585;SDS011;9939;49.246;9.106;2022-09-09T20:26:31;5.27;;;1.30;;
19585;SDS011;9939;49.246;9.106;2022-09-09T20:29:01;2.63;;;1.10;;
19585;SDS011;9939;49.246;9.106;2022-09-09T20:31:34;4.43;;;1.00;;
19585;SDS011;9939;49.246;9.106;2022-09-09T20:34:02;3.03;;;1.10;;
19585;SDS011;9939;49.246;9.106;2022-09-09T20:36:32;6.87;;;0.80;;
19585;SDS011;9939;49.246;9.106;2022-09-09T20:39:14;2.10;;;0.90;;
19585;SDS011;9939;49.246;9.106;2022-09-09T20:41:43;1.97;;;1.00;;
19585;SDS011;9939;49.246;9.106;2022-09-09T20:44:14;3.37;;;1.20;;
19585;SDS011;9939;49.246;9.106;2022-09-09T20:46:50;2.47;;;0.90;;
19585;SDS011;9939;49.246;9.106;2022-09-09T20:49:21;3.13;;;1.00;;
19585;SDS011;9939;49.246;9.106;2022-09-09T20:51:49;1.93;;;1.00;;
19585;SDS011;9939;49.246;9.106;2022-09-09T20:54:19;2.27;;;1.10;;
19585;SDS011;9939;49.246;9.106;2022-09-09T20:56:52;2.03;;;1.00;;
19585;SDS011;9939;49.246;9.106;2022-09-09T20:59:22;3.37;;;1.30;;
19585;SDS011;9939;49.246;9.106;2022-09-09T21:01:52;3.00;;;1.33;;
19585;SDS011;9939;49.246;9.106;2022-09-09T21:04:22;3.13;;;1.20;;
19585;SDS011;9939;49.246;9.106;2022-09-09T21:06:50;3.90;;;1.40;;
19585;SDS011;9939;49.246;9.106;2022-09-09T21:09:19;1.90;;;1.20;;
19585;SDS011;9939;49.246;9.106;2022-09-09T21:11:48;3.00;;;1.03;;
19585;SDS011;9939;49.246;9.106;2022-09-09T21:14:16;3.17;;;1.07;;
19585;SDS011;9939;49.246;9.106;2022-09-09T21:16:43;4.23;;;1.00;;
19585;SDS011;9939;49.246;9.106;2022-09-09T21:19:11;2.77;;;1.13;;
19585;SDS011;9939;49.246;9.106;2022-09-09T21:21:38;2.47;;;1.30;;
19585;SDS011;9939;49.246;9.106;2022-09-09T21:24:05;3.57;;;1.50;;
19585;SDS011;9939;49.246;9.106;2022-09-09T21:26:32;4.60;;;1.57;;
19585;SDS011;9939;49.246;9.106;2022-09-09T21:29:00;8.00;;;2.00;;
19585;SDS011;9939;49.246;9.106;2022-09-09T21:31:28;3.77;;;1.20;;
19585;SDS011;9939;49.246;9.106;2022-09-09T21:33:55;2.67;;;1.43;;
19585;SDS011;9939;49.246;9.106;2022-09-09T21:36:23;2.07;;;1.20;;
19585;SDS011;9939;49.246;9.106;2022-09-09T21:38:52;4.07;;;1.30;;
19585;SDS011;9939;49.246;9.106;2022-09-09T21:41:19;3.13;;;1.07;;
19585;SDS011;9939;49.246;9.106;2022-09-09T21:43:49;4.37;;;1.33;;
19585;SDS011;9939;49.246;9.106;2022-09-09T21:46:18;3.17;;;1.20;;
19585;SDS011;9939;49.246;9.106;2022-09-09T21:48:45;5.83;;;1.30;;
19585;SDS011;9939;49.246;9.106;2022-09-09T21:51:13;3.97;;;1.70;;
19585;SDS011;9939;49.246;9.106;2022-09-09T21:53:41;2.83;;;1.17;;
19585;SDS011;9939;49.246;9.106;2022-09-09T21:56:10;4.90;;;1.20;;
19585;SDS011;9939;49.246;9.106;2022-09-09T21:58:41;5.23;;;1.37;;
19585;SDS011;9939;49.246;9.106;2022-09-09T22:01:13;6.03;;;1.10;;
19585;SDS011;9939;49.246;9.106;2022-09-09T22:03:42;2.70;;;1.20;;
19585;SDS011;9939;49.246;9.106;2022-09-09T22:06:11;2.43;;;1.00;;
19585;SDS011;9939;49.246;9.106;2022-09-09T22:08:40;1.67;;;1.00;;
19585;SDS011;9939;49.246;9.106;2022-09-09T22:11:14;1.60;;;0.83;;
19585;SDS011;9939;49.246;9.106;2022-09-09T22:13:44;4.10;;;1.07;;
19585;SDS011;9939;49.246;9.106;2022-09-09T22:16:12;4.70;;;1.33;;
19585;SDS011;9939;49.246;9.106;2022-09-09T22:18:40;5.50;;;1.40;;
19585;SDS011;9939;49.246;9.106;2022-09-09T22:21:15;4.47;;;1.00;;
19585;SDS011;9939;49.246;9.106;2022-09-09T22:23:43;2.30;;;1.10;;
19585;SDS011;9939;49.246;9.106;2022-09-09T22:26:15;6.07;;;1.27;;
19585;SDS011;9939;49.246;9.106;2022-09-09T22:28:42;4.03;;;1.50;;
19585;SDS011;9939;49.246;9.106;2022-09-09T22:31:09;3.23;;;1.10;;
19585;SDS011;9939;49.246;9.106;2022-09-09T22:33:36;2.57;;;1.50;;
19585;SDS011;9939;49.246;9.106;2022-09-09T22:36:04;3.63;;;1.47;;
19585;SDS011;9939;49.246;9.106;2022-09-09T22:38:31;2.77;;;1.30;;
19585;SDS011;9939;49.246;9.106;2022-09-09T22:41:02;4.17;;;1.40;;
19585;SDS011;9939;49.246;9.106;2022-09-09T22:43:30;3.60;;;1.50;;
19585;SDS011;9939;49.246;9.106;2022-09-09T22:46:00;4.67;;;1.60;;
19585;SDS011;9939;49.246;9.106;2022-09-09T22:48:31;4.70;;;1.70;;
19585;SDS011;9939;49.246;9.106;2022-09-09T22:51:02;4.93;;;1.80;;
19585;SDS011;9939;49.246;9.106;2022-09-09T22:53:30;6.70;;;1.70;;
19585;SDS011;9939;49.246;9.106;2022-09-09T22:56:02;2.67;;;1.23;;
19585;SDS011;9939;49.246;9.106;2022-09-09T22:58:34;4.63;;;1.50;;
19585;SDS011;9939;49.246;9.106;2022-09-09T23:01:12;4.17;;;1.53;;
19585;SDS011;9939;49.246;9.106;2022-09-09T23:03:44;6.13;;;1.60;;
19585;SDS011;9939;49.246;9.106;2022-09-09T23:06:14;6.90;;;2.00;;
19585;SDS011;9939;49.246;9.106;2022-09-09T23:08:55;4.77;;;1.70;;
19585;SDS011;9939;49.246;9.106;2022-09-09T23:11:24;5.07;;;1.40;;
19585;SDS011;9939;49.246;9.106;2022-09-09T23:13:57;5.27;;;1.40;;
19585;SDS011;9939;49.246;9.106;2022-09-09T23:16:27;5.07;;;1.50;;
19585;SDS011;9939;49.246;9.106;2022-09-09T23:18:58;4.13;;;1.00;;
19585;SDS011;9939;49.246;9.106;2022-09-09T23:21:28;3.07;;;1.00;;
19585;SDS011;9939;49.246;9.106;2022-09-09T23:23:57;3.07;;;1.33;;
19585;SDS011;9939;49.246;9.106;2022-09-09T23:26:25;4.70;;;1.50;;
19585;SDS011;9939;49.246;9.106;2022-09-09T23:28:55;2.70;;;1.10;;
19585;SDS011;9939;49.246;9.106;2022-09-09T23:31:24;5.83;;;1.20;;
19585;SDS011;9939;49.246;9.106;2022-09-09T23:33:54;2.80;;;1.57;;
19585;SDS011;9939;49.246;9.106;2022-09-09T23:36:23;4.40;;;1.17;;
19585;SDS011;9939;49.246;9.106;2022-09-09T23:38:51;2.37;;;1.00;;
19585;SDS011;9939;49.246;9.106;2022-09-09T23:41:21;2.17;;;0.90;;
19585;SDS011;9939;49.246;9.106;2022-09-09T23:43:49;3.90;;;1.00;;
19585;SDS011;9939;49.246;9.106;2022-09-09T23:46:18;4.33;;;1.13;;
19585;SDS011;9939;49.246;9.106;2022-09-09T23:48:47;5.37;;;1.20;;
19585;SDS011;9939;49.246;9.106;2022-09-09T23:51:18;2.57;;;1.07;;
19585;SDS011;9939;49.246;9.106;2022-09-09T23:53:53;3.20;;;1.10;;
19585;SDS011;9939;49.246;9.106;2022-09-09T23:56:24;3.17;;;1.03;;
19585;SDS011;9939;49.246;9.106;2022-09-09T23:58:53;4.03;;;1.10;;
